sensor_id;sensor_type;location;lat;lon;timestamp;P1;durP1;ratioP1;P2;durP2;ratioP2
11616;SDS011;5864;52.998;9.068;2023-03-09T00:00:32;13.00;;;9.30;;
11616;SDS011;5864;52.998;9.068;2023-03-09T00:03:19;12.40;;;8.40;;
11616;SDS011;5864;52.998;9.068;2023-03-09T00:06:05;13.05;;;9.10;;
11616;SDS011;5864;52.998;9.068;2023-03-09T00:08:51;14.35;;;9.80;;
11616;SDS011;5864;52.998;9.068;2023-03-09T00:11:40;14.60;;;9.45;;
11616;SDS011;5864;52.998;9.068;2023-03-09T00:14:27;14.63;;;9.00;;
11616;SDS011;5864;52.998;9.068;2023-03-09T00:17:13;14.40;;;9.38;;
11616;SDS011;5864;52.998;9.068;2023-03-09T00:19:59;13.80;;;9.38;;
11616;SDS011;5864;52.998;9.068;2023-03-09T00:23:00;12.68;;;9.20;;
11616;SDS011;5864;52.998;9.068;2023-03-09T00:25:52;14.73;;;10.02;;
11616;SDS011;5864;52.998;9.068;2023-03-09T00:28:39;14.30;;;10.00;;
11616;SDS011;5864;52.998;9.068;2023-03-09T00:31:24;16.15;;;10.00;;
11616;SDS011;5864;52.998;9.068;2023-03-09T00:34:10;15.55;;;9.82;;
11616;SDS011;5864;52.998;9.068;2023-03-09T00:36:57;16.52;;;10.15;;
11616;SDS011;5864;52.998;9.068;2023-03-09T00:39:43;16.38;;;9.88;;
11616;SDS011;5864;52.998;9.068;2023-03-09T00:42:28;14.00;;;9.00;;
11616;SDS011;5864;52.998;9.068;2023-03-09T00:45:15;15.15;;;9.70;;
11616;SDS011;5864;52.998;9.068;2023-03-09T00:48:01;16.35;;;9.77;;
11616;SDS011;5864;52.998;9.068;2023-03-09T00:50:47;13.90;;;9.02;;
11616;SDS011;5864;52.998;9.068;2023-03-09T00:53:33;14.38;;;9.60;;
11616;SDS011;5864;52.998;9.068;2023-03-09T00:56:19;14.63;;;9.07;;
11616;SDS011;5864;52.998;9.068;2023-03-09T00:59:09;13.90;;;9.50;;
11616;SDS011;5864;52.998;9.068;2023-03-09T01:01:57;15.75;;;9.13;;
11616;SDS011;5864;52.998;9.068;2023-03-09T01:04:43;13.73;;;9.35;;
11616;SDS011;5864;52.998;9.068;2023-03-09T01:07:28;16.08;;;9.70;;
11616;SDS011;5864;52.998;9.068;2023-03-09T01:10:16;14.15;;;9.27;;
11616;SDS011;5864;52.998;9.068;2023-03-09T01:13:02;12.85;;;8.82;;
11616;SDS011;5864;52.998;9.068;2023-03-09T01:15:47;16.55;;;9.82;;
11616;SDS011;5864;52.998;9.068;2023-03-09T01:18:34;15.90;;;10.02;;
11616;SDS011;5864;52.998;9.068;2023-03-09T01:21:20;17.48;;;10.23;;
11616;SDS011;5864;52.998;9.068;2023-03-09T01:24:05;15.07;;;9.13;;
11616;SDS011;5864;52.998;9.068;2023-03-09T01:26:51;14.73;;;9.70;;
11616;SDS011;5864;52.998;9.068;2023-03-09T01:29:37;14.77;;;8.93;;
11616;SDS011;5864;52.998;9.068;2023-03-09T01:32:23;18.17;;;9.63;;
11616;SDS011;5864;52.998;9.068;2023-03-09T01:35:13;17.92;;;10.05;;
11616;SDS011;5864;52.998;9.068;2023-03-09T01:37:59;15.90;;;9.57;;
11616;SDS011;5864;52.998;9.068;2023-03-09T01:40:45;16.35;;;10.43;;
11616;SDS011;5864;52.998;9.068;2023-03-09T01:43:33;14.15;;;9.40;;
11616;SDS011;5864;52.998;9.068;2023-03-09T01:46:35;15.95;;;9.23;;
11616;SDS011;5864;52.998;9.068;2023-03-09T01:49:27;13.73;;;8.85;;
11616;SDS011;5864;52.998;9.068;2023-03-09T01:52:20;14.77;;;9.43;;
11616;SDS011;5864;52.998;9.068;2023-03-09T01:55:10;15.57;;;9.63;;
11616;SDS011;5864;52.998;9.068;2023-03-09T01:57:57;22.88;;;12.20;;
11616;SDS011;5864;52.998;9.068;2023-03-09T02:00:46;13.55;;;9.43;;
11616;SDS011;5864;52.998;9.068;2023-03-09T02:03:34;15.88;;;9.07;;
11616;SDS011;5864;52.998;9.068;2023-03-09T02:06:23;14.77;;;10.05;;
11616;SDS011;5864;52.998;9.068;2023-03-09T02:09:12;16.17;;;9.80;;
11616;SDS011;5864;52.998;9.068;2023-03-09T02:12:05;15.77;;;9.48;;
11616;SDS011;5864;52.998;9.068;2023-03-09T02:14:52;18.23;;;9.52;;
11616;SDS011;5864;52.998;9.068;2023-03-09T02:17:38;13.80;;;9.07;;
11616;SDS011;5864;52.998;9.068;2023-03-09T02:20:24;19.80;;;10.35;;
11616;SDS011;5864;52.998;9.068;2023-03-09T02:23:18;18.45;;;11.02;;
11616;SDS011;5864;52.998;9.068;2023-03-09T02:26:11;15.38;;;9.50;;
11616;SDS011;5864;52.998;9.068;2023-03-09T02:29:05;14.90;;;9.73;;
11616;SDS011;5864;52.998;9.068;2023-03-09T02:31:50;17.02;;;10.48;;
11616;SDS011;5864;52.998;9.068;2023-03-09T02:34:36;18.70;;;9.68;;
11616;SDS011;5864;52.998;9.068;2023-03-09T02:37:26;13.82;;;10.00;;
11616;SDS011;5864;52.998;9.068;2023-03-09T02:40:15;17.23;;;9.95;;
11616;SDS011;5864;52.998;9.068;2023-03-09T02:43:06;15.48;;;9.52;;
11616;SDS011;5864;52.998;9.068;2023-03-09T02:45:54;16.92;;;10.57;;
11616;SDS011;5864;52.998;9.068;2023-03-09T02:48:39;15.13;;;9.85;;
11616;SDS011;5864;52.998;9.068;2023-03-09T02:51:25;17.45;;;9.80;;
11616;SDS011;5864;52.998;9.068;2023-03-09T02:54:11;15.98;;;10.38;;
11616;SDS011;5864;52.998;9.068;2023-03-09T02:56:56;19.20;;;10.77;;
11616;SDS011;5864;52.998;9.068;2023-03-09T02:59:43;17.45;;;10.70;;
11616;SDS011;5864;52.998;9.068;2023-03-09T03:02:30;18.15;;;10.68;;
11616;SDS011;5864;52.998;9.068;2023-03-09T03:05:15;19.75;;;10.73;;
11616;SDS011;5864;52.998;9.068;2023-03-09T03:08:01;16.45;;;10.30;;
11616;SDS011;5864;52.998;9.068;2023-03-09T03:10:47;17.42;;;10.98;;
11616;SDS011;5864;52.998;9.068;2023-03-09T03:13:32;14.60;;;9.30;;
11616;SDS011;5864;52.998;9.068;2023-03-09T03:16:19;17.52;;;10.93;;
11616;SDS011;5864;52.998;9.068;2023-03-09T03:19:06;17.20;;;10.98;;
11616;SDS011;5864;52.998;9.068;2023-03-09T03:21:52;17.40;;;10.52;;
11616;SDS011;5864;52.998;9.068;2023-03-09T03:24:38;19.02;;;10.85;;
11616;SDS011;5864;52.998;9.068;2023-03-09T03:27:24;20.38;;;11.35;;
11616;SDS011;5864;52.998;9.068;2023-03-09T03:30:10;16.15;;;10.43;;
11616;SDS011;5864;52.998;9.068;2023-03-09T03:32:57;19.05;;;11.70;;
11616;SDS011;5864;52.998;9.068;2023-03-09T03:35:44;19.05;;;11.38;;
11616;SDS011;5864;52.998;9.068;2023-03-09T03:38:29;16.67;;;10.32;;
11616;SDS011;5864;52.998;9.068;2023-03-09T03:41:15;21.10;;;11.57;;
11616;SDS011;5864;52.998;9.068;2023-03-09T03:44:01;19.08;;;11.80;;
11616;SDS011;5864;52.998;9.068;2023-03-09T03:46:47;18.75;;;10.93;;
11616;SDS011;5864;52.998;9.068;2023-03-09T03:49:32;19.00;;;10.57;;
11616;SDS011;5864;52.998;9.068;2023-03-09T03:52:19;18.58;;;11.13;;
11616;SDS011;5864;52.998;9.068;2023-03-09T03:55:05;19.45;;;10.88;;
11616;SDS011;5864;52.998;9.068;2023-03-09T03:57:51;18.65;;;10.98;;
11616;SDS011;5864;52.998;9.068;2023-03-09T04:00:36;21.80;;;11.65;;
11616;SDS011;5864;52.998;9.068;2023-03-09T04:03:23;20.02;;;12.15;;
11616;SDS011;5864;52.998;9.068;2023-03-09T04:06:09;20.45;;;11.93;;
11616;SDS011;5864;52.998;9.068;2023-03-09T04:08:56;20.38;;;11.95;;
11616;SDS011;5864;52.998;9.068;2023-03-09T04:11:42;20.05;;;12.13;;
11616;SDS011;5864;52.998;9.068;2023-03-09T04:14:31;21.13;;;11.60;;
11616;SDS011;5864;52.998;9.068;2023-03-09T04:17:17;19.55;;;12.20;;
11616;SDS011;5864;52.998;9.068;2023-03-09T04:20:03;20.88;;;12.30;;
11616;SDS011;5864;52.998;9.068;2023-03-09T04:22:49;19.15;;;11.50;;
11616;SDS011;5864;52.998;9.068;2023-03-09T04:25:36;18.60;;;11.80;;
11616;SDS011;5864;52.998;9.068;2023-03-09T04:28:22;18.95;;;11.77;;
11616;SDS011;5864;52.998;9.068;2023-03-09T04:31:07;23.05;;;13.75;;
11616;SDS011;5864;52.998;9.068;2023-03-09T04:33:53;20.42;;;12.10;;
11616;SDS011;5864;52.998;9.068;2023-03-09T04:36:39;19.80;;;12.18;;
11616;SDS011;5864;52.998;9.068;2023-03-09T04:39:25;20.02;;;12.20;;
11616;SDS011;5864;52.998;9.068;2023-03-09T04:42:12;19.27;;;11.85;;
11616;SDS011;5864;52.998;9.068;2023-03-09T04:44:58;18.27;;;11.63;;
11616;SDS011;5864;52.998;9.068;2023-03-09T04:47:44;18.88;;;12.02;;
11616;SDS011;5864;52.998;9.068;2023-03-09T04:50:30;21.00;;;12.18;;
11616;SDS011;5864;52.998;9.068;2023-03-09T04:53:15;21.83;;;12.68;;
11616;SDS011;5864;52.998;9.068;2023-03-09T04:56:01;19.00;;;11.45;;
11616;SDS011;5864;52.998;9.068;2023-03-09T04:58:48;20.00;;;11.50;;
11616;SDS011;5864;52.998;9.068;2023-03-09T05:01:33;20.45;;;12.07;;
11616;SDS011;5864;52.998;9.068;2023-03-09T05:04:19;20.45;;;11.75;;
11616;SDS011;5864;52.998;9.068;2023-03-09T05:07:05;18.42;;;10.98;;
11616;SDS011;5864;52.998;9.068;2023-03-09T05:09:50;21.65;;;11.85;;
11616;SDS011;5864;52.998;9.068;2023-03-09T05:12:36;22.23;;;12.60;;
11616;SDS011;5864;52.998;9.068;2023-03-09T05:15:23;22.08;;;12.93;;
11616;SDS011;5864;52.998;9.068;2023-03-09T05:18:08;19.55;;;11.82;;
11616;SDS011;5864;52.998;9.068;2023-03-09T05:20:54;19.73;;;12.32;;
11616;SDS011;5864;52.998;9.068;2023-03-09T05:23:40;21.52;;;12.20;;
11616;SDS011;5864;52.998;9.068;2023-03-09T05:26:26;20.65;;;11.75;;
11616;SDS011;5864;52.998;9.068;2023-03-09T05:29:12;20.15;;;11.63;;
11616;SDS011;5864;52.998;9.068;2023-03-09T05:32:00;17.67;;;11.18;;
11616;SDS011;5864;52.998;9.068;2023-03-09T05:34:45;20.75;;;11.82;;
11616;SDS011;5864;52.998;9.068;2023-03-09T05:37:31;17.50;;;10.88;;
11616;SDS011;5864;52.998;9.068;2023-03-09T05:40:17;19.17;;;11.48;;
11616;SDS011;5864;52.998;9.068;2023-03-09T05:43:05;21.77;;;11.25;;
11616;SDS011;5864;52.998;9.068;2023-03-09T05:45:54;16.90;;;11.32;;
11616;SDS011;5864;52.998;9.068;2023-03-09T05:48:42;17.98;;;11.55;;
11616;SDS011;5864;52.998;9.068;2023-03-09T05:51:28;19.63;;;11.48;;
11616;SDS011;5864;52.998;9.068;2023-03-09T05:54:14;18.17;;;11.18;;
11616;SDS011;5864;52.998;9.068;2023-03-09T05:57:00;17.77;;;10.85;;
11616;SDS011;5864;52.998;9.068;2023-03-09T05:59:47;16.77;;;10.65;;
11616;SDS011;5864;52.998;9.068;2023-03-09T06:02:33;18.35;;;11.23;;
11616;SDS011;5864;52.998;9.068;2023-03-09T06:05:20;18.90;;;11.15;;
11616;SDS011;5864;52.998;9.068;2023-03-09T06:08:05;18.92;;;10.93;;
11616;SDS011;5864;52.998;9.068;2023-03-09T06:10:51;17.27;;;10.98;;
11616;SDS011;5864;52.998;9.068;2023-03-09T06:13:37;20.25;;;12.15;;
11616;SDS011;5864;52.998;9.068;2023-03-09T06:16:23;16.83;;;10.60;;
11616;SDS011;5864;52.998;9.068;2023-03-09T06:19:10;19.13;;;10.40;;
11616;SDS011;5864;52.998;9.068;2023-03-09T06:21:57;17.75;;;11.27;;
11616;SDS011;5864;52.998;9.068;2023-03-09T06:24:43;18.23;;;10.60;;
11616;SDS011;5864;52.998;9.068;2023-03-09T06:27:28;17.75;;;10.45;;
11616;SDS011;5864;52.998;9.068;2023-03-09T06:30:14;17.30;;;11.38;;
11616;SDS011;5864;52.998;9.068;2023-03-09T06:33:00;19.13;;;10.80;;
11616;SDS011;5864;52.998;9.068;2023-03-09T06:35:45;20.35;;;12.10;;
11616;SDS011;5864;52.998;9.068;2023-03-09T06:38:32;17.02;;;10.68;;
11616;SDS011;5864;52.998;9.068;2023-03-09T06:41:18;16.92;;;10.60;;
11616;SDS011;5864;52.998;9.068;2023-03-09T06:44:12;15.27;;;9.52;;
11616;SDS011;5864;52.998;9.068;2023-03-09T06:46:58;17.13;;;10.55;;
11616;SDS011;5864;52.998;9.068;2023-03-09T06:49:43;16.98;;;10.13;;
11616;SDS011;5864;52.998;9.068;2023-03-09T06:52:29;16.13;;;9.75;;
11616;SDS011;5864;52.998;9.068;2023-03-09T06:55:16;17.20;;;10.57;;
11616;SDS011;5864;52.998;9.068;2023-03-09T06:58:02;14.57;;;9.50;;
11616;SDS011;5864;52.998;9.068;2023-03-09T07:00:47;16.08;;;9.50;;
11616;SDS011;5864;52.998;9.068;2023-03-09T07:03:34;15.82;;;9.25;;
11616;SDS011;5864;52.998;9.068;2023-03-09T07:06:20;15.90;;;9.25;;
11616;SDS011;5864;52.998;9.068;2023-03-09T07:09:06;14.25;;;9.00;;
11616;SDS011;5864;52.998;9.068;2023-03-09T07:11:53;15.13;;;8.85;;
11616;SDS011;5864;52.998;9.068;2023-03-09T07:14:39;14.88;;;9.45;;
11616;SDS011;5864;52.998;9.068;2023-03-09T07:17:24;16.33;;;8.60;;
11616;SDS011;5864;52.998;9.068;2023-03-09T07:20:10;14.63;;;8.65;;
11616;SDS011;5864;52.998;9.068;2023-03-09T07:22:56;16.63;;;9.65;;
11616;SDS011;5864;52.998;9.068;2023-03-09T07:25:41;13.80;;;9.07;;
11616;SDS011;5864;52.998;9.068;2023-03-09T07:28:29;15.27;;;8.70;;
11616;SDS011;5864;52.998;9.068;2023-03-09T07:31:15;16.77;;;9.55;;
11616;SDS011;5864;52.998;9.068;2023-03-09T07:34:00;15.38;;;9.88;;
11616;SDS011;5864;52.998;9.068;2023-03-09T07:36:46;17.05;;;9.98;;
11616;SDS011;5864;52.998;9.068;2023-03-09T07:39:32;13.38;;;8.52;;
11616;SDS011;5864;52.998;9.068;2023-03-09T07:42:18;15.02;;;9.35;;
11616;SDS011;5864;52.998;9.068;2023-03-09T07:45:06;13.93;;;9.00;;
11616;SDS011;5864;52.998;9.068;2023-03-09T07:47:53;16.38;;;9.10;;
11616;SDS011;5864;52.998;9.068;2023-03-09T07:50:39;13.07;;;8.52;;
11616;SDS011;5864;52.998;9.068;2023-03-09T07:53:25;12.43;;;9.18;;
11616;SDS011;5864;52.998;9.068;2023-03-09T07:56:11;13.65;;;9.00;;
11616;SDS011;5864;52.998;9.068;2023-03-09T07:58:56;13.07;;;8.65;;
11616;SDS011;5864;52.998;9.068;2023-03-09T08:01:43;13.00;;;8.60;;
11616;SDS011;5864;52.998;9.068;2023-03-09T08:04:29;12.75;;;7.95;;
11616;SDS011;5864;52.998;9.068;2023-03-09T08:07:15;14.18;;;8.80;;
11616;SDS011;5864;52.998;9.068;2023-03-09T08:10:01;12.43;;;8.45;;
11616;SDS011;5864;52.998;9.068;2023-03-09T08:12:48;11.07;;;7.78;;
11616;SDS011;5864;52.998;9.068;2023-03-09T08:15:34;13.65;;;9.00;;
11616;SDS011;5864;52.998;9.068;2023-03-09T08:18:21;13.52;;;8.90;;
11616;SDS011;5864;52.998;9.068;2023-03-09T08:21:07;12.07;;;7.72;;
11616;SDS011;5864;52.998;9.068;2023-03-09T08:23:53;11.77;;;7.95;;
11616;SDS011;5864;52.998;9.068;2023-03-09T08:26:39;11.68;;;8.05;;
11616;SDS011;5864;52.998;9.068;2023-03-09T08:29:25;12.68;;;8.20;;
11616;SDS011;5864;52.998;9.068;2023-03-09T08:32:11;11.85;;;8.45;;
11616;SDS011;5864;52.998;9.068;2023-03-09T08:34:58;13.50;;;7.55;;
11616;SDS011;5864;52.998;9.068;2023-03-09T08:37:44;12.48;;;8.00;;
11616;SDS011;5864;52.998;9.068;2023-03-09T08:40:29;12.13;;;8.35;;
11616;SDS011;5864;52.998;9.068;2023-03-09T08:43:15;10.27;;;7.22;;
11616;SDS011;5864;52.998;9.068;2023-03-09T08:46:01;12.00;;;8.27;;
11616;SDS011;5864;52.998;9.068;2023-03-09T08:48:46;13.27;;;8.45;;
11616;SDS011;5864;52.998;9.068;2023-03-09T08:51:34;11.52;;;7.13;;
11616;SDS011;5864;52.998;9.068;2023-03-09T08:54:19;10.40;;;7.50;;
11616;SDS011;5864;52.998;9.068;2023-03-09T08:57:05;11.63;;;7.60;;
11616;SDS011;5864;52.998;9.068;2023-03-09T08:59:50;12.20;;;7.07;;
11616;SDS011;5864;52.998;9.068;2023-03-09T09:02:36;9.90;;;6.80;;
11616;SDS011;5864;52.998;9.068;2023-03-09T09:05:22;11.20;;;7.25;;
11616;SDS011;5864;52.998;9.068;2023-03-09T09:08:09;10.02;;;6.95;;
11616;SDS011;5864;52.998;9.068;2023-03-09T09:10:54;8.85;;;6.57;;
11616;SDS011;5864;52.998;9.068;2023-03-09T09:13:40;11.88;;;8.20;;
11616;SDS011;5864;52.998;9.068;2023-03-09T09:16:26;10.90;;;6.80;;
11616;SDS011;5864;52.998;9.068;2023-03-09T09:19:13;11.73;;;7.70;;
11616;SDS011;5864;52.998;9.068;2023-03-09T09:21:59;13.57;;;8.13;;
11616;SDS011;5864;52.998;9.068;2023-03-09T09:24:45;12.52;;;8.00;;
11616;SDS011;5864;52.998;9.068;2023-03-09T09:27:31;13.52;;;8.30;;
11616;SDS011;5864;52.998;9.068;2023-03-09T09:30:16;10.73;;;6.63;;
11616;SDS011;5864;52.998;9.068;2023-03-09T09:33:03;10.00;;;7.17;;
11616;SDS011;5864;52.998;9.068;2023-03-09T09:35:56;9.33;;;6.73;;
11616;SDS011;5864;52.998;9.068;2023-03-09T09:38:43;12.23;;;8.20;;
11616;SDS011;5864;52.998;9.068;2023-03-09T09:41:34;11.03;;;7.27;;
11616;SDS011;5864;52.998;9.068;2023-03-09T09:44:25;9.30;;;6.97;;
11616;SDS011;5864;52.998;9.068;2023-03-09T09:47:21;10.70;;;7.00;;
11616;SDS011;5864;52.998;9.068;2023-03-09T09:50:09;8.77;;;6.03;;
11616;SDS011;5864;52.998;9.068;2023-03-09T09:52:59;10.27;;;7.32;;
11616;SDS011;5864;52.998;9.068;2023-03-09T09:55:51;10.13;;;6.90;;
11616;SDS011;5864;52.998;9.068;2023-03-09T09:58:40;13.33;;;7.13;;
11616;SDS011;5864;52.998;9.068;2023-03-09T10:01:34;10.97;;;7.20;;
11616;SDS011;5864;52.998;9.068;2023-03-09T10:04:27;12.13;;;7.23;;
11616;SDS011;5864;52.998;9.068;2023-03-09T10:07:17;8.73;;;6.23;;
11616;SDS011;5864;52.998;9.068;2023-03-09T10:10:05;10.57;;;6.97;;
11616;SDS011;5864;52.998;9.068;2023-03-09T10:12:56;9.93;;;6.73;;
11616;SDS011;5864;52.998;9.068;2023-03-09T10:15:47;8.47;;;6.10;;
11616;SDS011;5864;52.998;9.068;2023-03-09T10:18:34;9.93;;;5.63;;
11616;SDS011;5864;52.998;9.068;2023-03-09T10:21:23;13.43;;;7.03;;
11616;SDS011;5864;52.998;9.068;2023-03-09T10:24:18;10.47;;;6.83;;
11616;SDS011;5864;52.998;9.068;2023-03-09T10:27:06;11.77;;;6.90;;
11616;SDS011;5864;52.998;9.068;2023-03-09T10:30:00;11.47;;;7.30;;
11616;SDS011;5864;52.998;9.068;2023-03-09T10:32:52;11.07;;;6.60;;
11616;SDS011;5864;52.998;9.068;2023-03-09T10:35:42;9.87;;;7.23;;
11616;SDS011;5864;52.998;9.068;2023-03-09T10:38:38;9.70;;;6.70;;
11616;SDS011;5864;52.998;9.068;2023-03-09T10:41:24;9.37;;;6.70;;
11616;SDS011;5864;52.998;9.068;2023-03-09T10:44:10;9.10;;;6.73;;
11616;SDS011;5864;52.998;9.068;2023-03-09T10:47:00;9.07;;;6.60;;
11616;SDS011;5864;52.998;9.068;2023-03-09T10:52:56;8.57;;;5.67;;
11616;SDS011;5864;52.998;9.068;2023-03-09T10:55:43;8.93;;;6.00;;
11616;SDS011;5864;52.998;9.068;2023-03-09T10:58:30;9.47;;;6.23;;
11616;SDS011;5864;52.998;9.068;2023-03-09T11:01:20;11.73;;;6.73;;
11616;SDS011;5864;52.998;9.068;2023-03-09T11:07:18;9.07;;;6.30;;
11616;SDS011;5864;52.998;9.068;2023-03-09T11:10:19;8.20;;;5.70;;
11616;SDS011;5864;52.998;9.068;2023-03-09T11:13:09;11.47;;;6.37;;
11616;SDS011;5864;52.998;9.068;2023-03-09T11:16:04;8.40;;;6.03;;
11616;SDS011;5864;52.998;9.068;2023-03-09T11:19:05;10.73;;;5.77;;
11616;SDS011;5864;52.998;9.068;2023-03-09T11:21:58;8.60;;;6.10;;
11616;SDS011;5864;52.998;9.068;2023-03-09T11:24:49;9.97;;;7.57;;
11616;SDS011;5864;52.998;9.068;2023-03-09T11:27:35;9.00;;;6.00;;
11616;SDS011;5864;52.998;9.068;2023-03-09T11:30:23;8.63;;;6.13;;
11616;SDS011;5864;52.998;9.068;2023-03-09T11:33:16;9.53;;;6.00;;
11616;SDS011;5864;52.998;9.068;2023-03-09T11:36:05;8.27;;;5.90;;
11616;SDS011;5864;52.998;9.068;2023-03-09T11:38:54;9.80;;;6.70;;
11616;SDS011;5864;52.998;9.068;2023-03-09T11:41:42;7.90;;;5.40;;
11616;SDS011;5864;52.998;9.068;2023-03-09T11:44:29;10.47;;;6.57;;
11616;SDS011;5864;52.998;9.068;2023-03-09T11:47:23;9.10;;;6.40;;
11616;SDS011;5864;52.998;9.068;2023-03-09T11:50:14;8.80;;;5.87;;
11616;SDS011;5864;52.998;9.068;2023-03-09T11:53:03;7.87;;;5.77;;
11616;SDS011;5864;52.998;9.068;2023-03-09T11:55:55;9.07;;;6.23;;
11616;SDS011;5864;52.998;9.068;2023-03-09T11:58:45;9.93;;;6.47;;
11616;SDS011;5864;52.998;9.068;2023-03-09T12:01:36;9.20;;;6.20;;
11616;SDS011;5864;52.998;9.068;2023-03-09T12:04:27;11.33;;;6.37;;
11616;SDS011;5864;52.998;9.068;2023-03-09T12:07:14;10.83;;;6.27;;
11616;SDS011;5864;52.998;9.068;2023-03-09T12:10:05;9.97;;;6.90;;
11616;SDS011;5864;52.998;9.068;2023-03-09T12:12:59;9.30;;;6.83;;
11616;SDS011;5864;52.998;9.068;2023-03-09T12:15:50;9.23;;;6.53;;
11616;SDS011;5864;52.998;9.068;2023-03-09T12:18:42;9.97;;;6.80;;
11616;SDS011;5864;52.998;9.068;2023-03-09T12:21:40;9.67;;;6.47;;
11616;SDS011;5864;52.998;9.068;2023-03-09T12:24:31;8.93;;;6.70;;
11616;SDS011;5864;52.998;9.068;2023-03-09T12:27:20;9.97;;;7.40;;
11616;SDS011;5864;52.998;9.068;2023-03-09T12:30:10;13.20;;;8.33;;
11616;SDS011;5864;52.998;9.068;2023-03-09T12:33:08;12.17;;;8.40;;
11616;SDS011;5864;52.998;9.068;2023-03-09T12:35:56;14.97;;;7.93;;
11616;SDS011;5864;52.998;9.068;2023-03-09T12:38:43;13.03;;;8.43;;
11616;SDS011;5864;52.998;9.068;2023-03-09T12:41:28;13.27;;;7.80;;
11616;SDS011;5864;52.998;9.068;2023-03-09T12:44:56;11.70;;;7.50;;
11616;SDS011;5864;52.998;9.068;2023-03-09T12:47:46;11.83;;;7.47;;
11616;SDS011;5864;52.998;9.068;2023-03-09T12:50:39;10.80;;;7.63;;
11616;SDS011;5864;52.998;9.068;2023-03-09T12:53:34;10.37;;;7.20;;
11616;SDS011;5864;52.998;9.068;2023-03-09T12:56:45;12.53;;;8.23;;
11616;SDS011;5864;52.998;9.068;2023-03-09T12:59:30;11.33;;;7.43;;
11616;SDS011;5864;52.998;9.068;2023-03-09T13:02:21;11.73;;;7.27;;
11616;SDS011;5864;52.998;9.068;2023-03-09T13:05:21;10.50;;;6.80;;
11616;SDS011;5864;52.998;9.068;2023-03-09T13:08:19;11.70;;;7.50;;
11616;SDS011;5864;52.998;9.068;2023-03-09T13:11:21;10.33;;;7.50;;
11616;SDS011;5864;52.998;9.068;2023-03-09T13:15:02;10.43;;;7.20;;
11616;SDS011;5864;52.998;9.068;2023-03-09T13:18:10;10.30;;;7.13;;
11616;SDS011;5864;52.998;9.068;2023-03-09T13:24:24;10.87;;;6.73;;
11616;SDS011;5864;52.998;9.068;2023-03-09T13:27:18;9.63;;;7.30;;
11616;SDS011;5864;52.998;9.068;2023-03-09T13:30:13;9.50;;;6.93;;
11616;SDS011;5864;52.998;9.068;2023-03-09T13:33:04;11.33;;;7.67;;
11616;SDS011;5864;52.998;9.068;2023-03-09T13:35:58;10.87;;;7.47;;
11616;SDS011;5864;52.998;9.068;2023-03-09T13:38:52;11.53;;;7.07;;
11616;SDS011;5864;52.998;9.068;2023-03-09T13:41:39;10.67;;;7.83;;
11616;SDS011;5864;52.998;9.068;2023-03-09T13:44:26;12.37;;;7.37;;
11616;SDS011;5864;52.998;9.068;2023-03-09T13:47:14;11.87;;;7.87;;
11616;SDS011;5864;52.998;9.068;2023-03-09T13:50:13;11.90;;;7.50;;
11616;SDS011;5864;52.998;9.068;2023-03-09T13:53:02;11.63;;;8.40;;
11616;SDS011;5864;52.998;9.068;2023-03-09T13:55:56;11.70;;;8.00;;
11616;SDS011;5864;52.998;9.068;2023-03-09T13:58:44;9.30;;;7.07;;
11616;SDS011;5864;52.998;9.068;2023-03-09T14:01:31;11.87;;;8.43;;
11616;SDS011;5864;52.998;9.068;2023-03-09T14:04:16;11.97;;;8.17;;
11616;SDS011;5864;52.998;9.068;2023-03-09T14:07:02;13.90;;;8.57;;
11616;SDS011;5864;52.998;9.068;2023-03-09T14:09:52;13.90;;;8.67;;
11616;SDS011;5864;52.998;9.068;2023-03-09T14:12:40;10.27;;;7.37;;
11616;SDS011;5864;52.998;9.068;2023-03-09T14:15:26;12.10;;;8.13;;
11616;SDS011;5864;52.998;9.068;2023-03-09T14:18:18;10.73;;;7.77;;
11616;SDS011;5864;52.998;9.068;2023-03-09T14:21:20;12.50;;;8.33;;
11616;SDS011;5864;52.998;9.068;2023-03-09T14:24:11;11.27;;;7.93;;
11616;SDS011;5864;52.998;9.068;2023-03-09T14:27:12;12.53;;;8.50;;
11616;SDS011;5864;52.998;9.068;2023-03-09T14:33:27;11.80;;;7.63;;
11616;SDS011;5864;52.998;9.068;2023-03-09T14:36:16;12.93;;;7.90;;
11616;SDS011;5864;52.998;9.068;2023-03-09T14:39:04;13.53;;;8.07;;
11616;SDS011;5864;52.998;9.068;2023-03-09T14:42:05;12.67;;;7.87;;
11616;SDS011;5864;52.998;9.068;2023-03-09T14:45:07;12.33;;;8.13;;
11616;SDS011;5864;52.998;9.068;2023-03-09T14:48:06;12.93;;;8.03;;
11616;SDS011;5864;52.998;9.068;2023-03-09T14:50:53;10.50;;;7.80;;
11616;SDS011;5864;52.998;9.068;2023-03-09T14:53:48;11.37;;;7.93;;
11616;SDS011;5864;52.998;9.068;2023-03-09T14:56:36;11.90;;;7.53;;
11616;SDS011;5864;52.998;9.068;2023-03-09T14:59:22;12.30;;;7.87;;
11616;SDS011;5864;52.998;9.068;2023-03-09T15:02:10;15.30;;;8.97;;
11616;SDS011;5864;52.998;9.068;2023-03-09T15:04:57;10.97;;;8.13;;
11616;SDS011;5864;52.998;9.068;2023-03-09T15:07:45;13.73;;;9.00;;
11616;SDS011;5864;52.998;9.068;2023-03-09T15:10:30;16.67;;;10.57;;
11616;SDS011;5864;52.998;9.068;2023-03-09T15:13:17;13.50;;;9.00;;
11616;SDS011;5864;52.998;9.068;2023-03-09T15:16:03;14.37;;;9.57;;
11616;SDS011;5864;52.998;9.068;2023-03-09T15:18:49;11.77;;;8.37;;
11616;SDS011;5864;52.998;9.068;2023-03-09T15:21:35;13.13;;;9.00;;
11616;SDS011;5864;52.998;9.068;2023-03-09T15:24:23;12.83;;;8.70;;
11616;SDS011;5864;52.998;9.068;2023-03-09T15:27:08;14.97;;;8.73;;
11616;SDS011;5864;52.998;9.068;2023-03-09T15:29:54;15.53;;;9.30;;
11616;SDS011;5864;52.998;9.068;2023-03-09T15:32:40;12.80;;;8.40;;
11616;SDS011;5864;52.998;9.068;2023-03-09T15:35:27;13.33;;;9.23;;
11616;SDS011;5864;52.998;9.068;2023-03-09T15:38:13;16.13;;;9.10;;
11616;SDS011;5864;52.998;9.068;2023-03-09T15:41:00;13.53;;;8.87;;
11616;SDS011;5864;52.998;9.068;2023-03-09T15:43:46;14.17;;;9.20;;
11616;SDS011;5864;52.998;9.068;2023-03-09T15:46:32;13.57;;;8.77;;
11616;SDS011;5864;52.998;9.068;2023-03-09T15:49:17;14.60;;;9.87;;
11616;SDS011;5864;52.998;9.068;2023-03-09T15:52:04;15.20;;;9.40;;
11616;SDS011;5864;52.998;9.068;2023-03-09T15:54:50;13.40;;;8.10;;
11616;SDS011;5864;52.998;9.068;2023-03-09T15:57:39;13.90;;;9.27;;
11616;SDS011;5864;52.998;9.068;2023-03-09T16:00:25;15.20;;;9.23;;
11616;SDS011;5864;52.998;9.068;2023-03-09T16:03:12;14.87;;;9.20;;
11616;SDS011;5864;52.998;9.068;2023-03-09T16:05:58;15.53;;;9.30;;
11616;SDS011;5864;52.998;9.068;2023-03-09T16:08:44;12.43;;;8.63;;
11616;SDS011;5864;52.998;9.068;2023-03-09T16:11:30;14.33;;;9.57;;
11616;SDS011;5864;52.998;9.068;2023-03-09T16:14:17;13.23;;;9.33;;
11616;SDS011;5864;52.998;9.068;2023-03-09T16:17:03;14.33;;;9.40;;
11616;SDS011;5864;52.998;9.068;2023-03-09T16:19:49;15.90;;;9.70;;
11616;SDS011;5864;52.998;9.068;2023-03-09T16:22:35;15.93;;;9.60;;
11616;SDS011;5864;52.998;9.068;2023-03-09T16:25:20;17.80;;;10.73;;
11616;SDS011;5864;52.998;9.068;2023-03-09T16:28:06;16.53;;;9.87;;
11616;SDS011;5864;52.998;9.068;2023-03-09T16:30:54;14.47;;;9.70;;
11616;SDS011;5864;52.998;9.068;2023-03-09T16:33:40;16.93;;;10.10;;
11616;SDS011;5864;52.998;9.068;2023-03-09T16:36:26;14.77;;;9.57;;
11616;SDS011;5864;52.998;9.068;2023-03-09T16:39:12;15.93;;;9.70;;
11616;SDS011;5864;52.998;9.068;2023-03-09T16:42:01;21.40;;;10.23;;
11616;SDS011;5864;52.998;9.068;2023-03-09T16:44:48;17.17;;;10.37;;
11616;SDS011;5864;52.998;9.068;2023-03-09T16:47:37;18.93;;;11.20;;
11616;SDS011;5864;52.998;9.068;2023-03-09T16:50:24;17.03;;;9.87;;
11616;SDS011;5864;52.998;9.068;2023-03-09T16:53:10;20.17;;;11.97;;
11616;SDS011;5864;52.998;9.068;2023-03-09T16:55:56;24.87;;;15.47;;
11616;SDS011;5864;52.998;9.068;2023-03-09T16:58:42;17.00;;;11.07;;
11616;SDS011;5864;52.998;9.068;2023-03-09T17:01:29;18.47;;;10.93;;
11616;SDS011;5864;52.998;9.068;2023-03-09T17:04:16;19.47;;;11.13;;